sensor_id;sensor_type;location;lat;lon;timestamp;pressure;altitude;pressure_sealevel;temperature;humidity
61814;BME280;57055;-35.296;149.168;2023-04-07T00:00:03;94120.01;;;12.36;76.89
61814;BME280;57055;-35.296;149.168;2023-04-07T00:02:32;94105.84;;;12.42;76.48
61814;BME280;57055;-35.296;149.168;2023-04-07T00:05:01;94102.35;;;12.43;77.03
61814;BME280;57055;-35.296;149.168;2023-04-07T00:07:30;94105.31;;;12.28;76.74
61814;BME280;57055;-35.296;149.168;2023-04-07T00:09:58;94099.42;;;12.67;76.88
61814;BME280;57055;-35.296;149.168;2023-04-07T00:12:27;94103.78;;;12.55;76.96
61814;BME280;57055;-35.296;149.168;2023-04-07T00:14:55;94100.99;;;12.77;77.23
61814;BME280;57055;-35.296;149.168;2023-04-07T00:17:24;94087.19;;;12.45;76.19
61814;BME280;57055;-35.296;149.168;2023-04-07T00:19:53;94080.33;;;12.95;76.69
61814;BME280;57055;-35.296;149.168;2023-04-07T00:22:22;94068.59;;;12.77;76.60
61814;BME280;57055;-35.296;149.168;2023-04-07T00:24:51;94063.06;;;12.77;77.22
61814;BME280;57055;-35.296;149.168;2023-04-07T00:27:20;94060.51;;;12.57;76.69
61814;BME280;57055;-35.296;149.168;2023-04-07T00:29:49;94057.17;;;12.70;76.85
61814;BME280;57055;-35.296;149.168;2023-04-07T00:32:18;94055.63;;;12.76;77.13
61814;BME280;57055;-35.296;149.168;2023-04-07T00:34:47;94051.63;;;12.80;77.19
61814;BME280;57055;-35.296;149.168;2023-04-07T00:37:15;94041.93;;;12.81;76.94
61814;BME280;57055;-35.296;149.168;2023-04-07T00:39:44;94037.39;;;12.52;76.85
61814;BME280;57055;-35.296;149.168;2023-04-07T00:42:13;94033.17;;;12.74;77.17
61814;BME280;57055;-35.296;149.168;2023-04-07T00:44:41;94025.89;;;12.59;77.53
61814;BME280;57055;-35.296;149.168;2023-04-07T00:47:10;94028.11;;;12.88;77.89
61814;BME280;57055;-35.296;149.168;2023-04-07T00:49:40;94027.76;;;12.47;77.75
61814;BME280;57055;-35.296;149.168;2023-04-07T00:52:09;94031.73;;;12.99;77.83
61814;BME280;57055;-35.296;149.168;2023-04-07T00:54:38;94020.92;;;12.53;77.30
61814;BME280;57055;-35.296;149.168;2023-04-07T00:57:09;94019.15;;;12.95;77.35
61814;BME280;57055;-35.296;149.168;2023-04-07T00:59:38;94006.28;;;12.86;77.09
61814;BME280;57055;-35.296;149.168;2023-04-07T01:02:12;94001.58;;;12.46;76.91
61814;BME280;57055;-35.296;149.168;2023-04-07T01:04:48;94002.58;;;12.82;77.56
61814;BME280;57055;-35.296;149.168;2023-04-07T01:07:26;93996.33;;;12.85;77.89
61814;BME280;57055;-35.296;149.168;2023-04-07T01:10:02;94012.95;;;13.09;77.65
61814;BME280;57055;-35.296;149.168;2023-04-07T01:12:45;94030.71;;;12.91;77.49
61814;BME280;57055;-35.296;149.168;2023-04-07T01:15:18;94025.06;;;13.16;76.87
61814;BME280;57055;-35.296;149.168;2023-04-07T01:17:52;94021.07;;;12.52;77.04
61814;BME280;57055;-35.296;149.168;2023-04-07T01:20:27;94010.31;;;12.95;76.18
61814;BME280;57055;-35.296;149.168;2023-04-07T01:23:02;94006.84;;;12.67;75.88
61814;BME280;57055;-35.296;149.168;2023-04-07T01:26:05;94006.01;;;12.68;76.01
61814;BME280;57055;-35.296;149.168;2023-04-07T01:29:10;93985.15;;;12.89;76.43
61814;BME280;57055;-35.296;149.168;2023-04-07T01:31:42;93981.31;;;12.62;75.99
61814;BME280;57055;-35.296;149.168;2023-04-07T01:34:13;93974.39;;;12.82;76.61
61814;BME280;57055;-35.296;149.168;2023-04-07T01:36:43;93966.04;;;12.59;76.61
61814;BME280;57055;-35.296;149.168;2023-04-07T01:39:13;93953.08;;;12.61;76.69
61814;BME280;57055;-35.296;149.168;2023-04-07T01:41:43;93950.10;;;12.60;77.19
61814;BME280;57055;-35.296;149.168;2023-04-07T01:44:12;93943.37;;;12.63;77.21
61814;BME280;57055;-35.296;149.168;2023-04-07T01:46:42;93936.23;;;12.65;75.57
61814;BME280;57055;-35.296;149.168;2023-04-07T01:49:11;93932.06;;;12.40;76.28
61814;BME280;57055;-35.296;149.168;2023-04-07T01:51:41;93928.66;;;12.88;76.91
61814;BME280;57055;-35.296;149.168;2023-04-07T01:54:11;93920.62;;;12.62;76.73
61814;BME280;57055;-35.296;149.168;2023-04-07T01:56:40;93910.17;;;12.37;77.43
61814;BME280;57055;-35.296;149.168;2023-04-07T01:59:09;93905.21;;;12.86;77.87
61814;BME280;57055;-35.296;149.168;2023-04-07T02:01:37;93896.82;;;12.97;77.36
61814;BME280;57055;-35.296;149.168;2023-04-07T02:04:11;93895.63;;;13.04;77.69
61814;BME280;57055;-35.296;149.168;2023-04-07T02:06:50;93886.15;;;12.58;77.51
61814;BME280;57055;-35.296;149.168;2023-04-07T02:09:22;93887.51;;;12.90;77.50
61814;BME280;57055;-35.296;149.168;2023-04-07T02:11:55;93879.21;;;12.89;77.16
61814;BME280;57055;-35.296;149.168;2023-04-07T02:14:26;93876.80;;;12.88;77.20
61814;BME280;57055;-35.296;149.168;2023-04-07T02:16:56;93869.10;;;12.93;77.51
61814;BME280;57055;-35.296;149.168;2023-04-07T02:19:25;93870.24;;;12.70;77.81
61814;BME280;57055;-35.296;149.168;2023-04-07T02:21:54;93865.25;;;13.00;77.63
61814;BME280;57055;-35.296;149.168;2023-04-07T02:24:24;93857.59;;;12.74;77.31
61814;BME280;57055;-35.296;149.168;2023-04-07T02:26:52;93853.68;;;12.78;76.98
61814;BME280;57055;-35.296;149.168;2023-04-07T02:29:21;93843.22;;;12.79;76.92
61814;BME280;57055;-35.296;149.168;2023-04-07T02:31:50;93832.92;;;13.22;76.57
61814;BME280;57055;-35.296;149.168;2023-04-07T02:34:19;93827.08;;;12.81;76.79
61814;BME280;57055;-35.296;149.168;2023-04-07T02:36:47;93812.14;;;12.97;76.59
61814;BME280;57055;-35.296;149.168;2023-04-07T02:39:16;93809.11;;;13.05;75.98
61814;BME280;57055;-35.296;149.168;2023-04-07T02:41:45;93812.20;;;13.25;75.83
61814;BME280;57055;-35.296;149.168;2023-04-07T02:44:13;93804.06;;;13.45;76.04
61814;BME280;57055;-35.296;149.168;2023-04-07T02:46:42;93797.28;;;13.46;75.06
61814;BME280;57055;-35.296;149.168;2023-04-07T02:49:11;93788.13;;;13.34;74.49
61814;BME280;57055;-35.296;149.168;2023-04-07T02:51:40;93785.12;;;13.33;75.81
61814;BME280;57055;-35.296;149.168;2023-04-07T02:54:09;93780.08;;;13.43;76.83
61814;BME280;57055;-35.296;149.168;2023-04-07T02:56:38;93773.40;;;13.46;76.30
61814;BME280;57055;-35.296;149.168;2023-04-07T02:59:07;93763.81;;;13.52;75.88
61814;BME280;57055;-35.296;149.168;2023-04-07T03:01:35;93760.49;;;13.49;76.21
61814;BME280;57055;-35.296;149.168;2023-04-07T03:04:04;93753.32;;;13.53;76.59
61814;BME280;57055;-35.296;149.168;2023-04-07T03:06:33;93750.46;;;13.55;76.94
61814;BME280;57055;-35.296;149.168;2023-04-07T03:09:01;93742.36;;;13.65;77.36
61814;BME280;57055;-35.296;149.168;2023-04-07T03:11:30;93730.46;;;13.67;76.56
61814;BME280;57055;-35.296;149.168;2023-04-07T03:13:59;93725.73;;;13.56;76.39
61814;BME280;57055;-35.296;149.168;2023-04-07T03:16:27;93718.46;;;13.53;75.90
61814;BME280;57055;-35.296;149.168;2023-04-07T03:18:56;93707.62;;;13.53;76.16
61814;BME280;57055;-35.296;149.168;2023-04-07T03:21:24;93703.89;;;13.58;76.13
61814;BME280;57055;-35.296;149.168;2023-04-07T03:23:53;93691.60;;;13.71;75.96
61814;BME280;57055;-35.296;149.168;2023-04-07T03:26:22;93684.68;;;13.86;76.07
61814;BME280;57055;-35.296;149.168;2023-04-07T03:28:50;93683.36;;;13.67;75.97
61814;BME280;57055;-35.296;149.168;2023-04-07T03:31:19;93680.01;;;13.98;75.86
61814;BME280;57055;-35.296;149.168;2023-04-07T03:33:49;93684.87;;;13.78;75.01
61814;BME280;57055;-35.296;149.168;2023-04-07T03:36:18;93681.52;;;13.95;73.75
61814;BME280;57055;-35.296;149.168;2023-04-07T03:38:47;93682.07;;;13.74;74.41
61814;BME280;57055;-35.296;149.168;2023-04-07T03:41:16;93669.20;;;14.00;75.69
61814;BME280;57055;-35.296;149.168;2023-04-07T03:43:45;93659.64;;;13.82;76.03
61814;BME280;57055;-35.296;149.168;2023-04-07T03:46:13;93663.23;;;14.06;75.81
61814;BME280;57055;-35.296;149.168;2023-04-07T03:48:43;93662.18;;;14.02;75.46
61814;BME280;57055;-35.296;149.168;2023-04-07T03:51:11;93657.84;;;13.84;76.04
61814;BME280;57055;-35.296;149.168;2023-04-07T03:53:40;93652.61;;;13.82;75.62
61814;BME280;57055;-35.296;149.168;2023-04-07T03:56:09;93649.22;;;13.82;75.33
61814;BME280;57055;-35.296;149.168;2023-04-07T03:58:38;93649.78;;;13.89;74.92
61814;BME280;57055;-35.296;149.168;2023-04-07T04:01:07;93648.09;;;13.88;74.73
61814;BME280;57055;-35.296;149.168;2023-04-07T04:03:35;93650.40;;;13.87;75.42
61814;BME280;57055;-35.296;149.168;2023-04-07T04:06:04;93659.91;;;13.81;74.76
61814;BME280;57055;-35.296;149.168;2023-04-07T04:08:33;93665.08;;;13.94;74.81
61814;BME280;57055;-35.296;149.168;2023-04-07T04:11:02;93662.88;;;13.88;74.58
61814;BME280;57055;-35.296;149.168;2023-04-07T04:13:30;93669.27;;;13.84;74.33
61814;BME280;57055;-35.296;149.168;2023-04-07T04:15:59;93658.80;;;13.71;72.73
61814;BME280;57055;-35.296;149.168;2023-04-07T04:18:28;93635.72;;;13.57;70.82
61814;BME280;57055;-35.296;149.168;2023-04-07T04:20:56;93634.36;;;13.47;70.62
61814;BME280;57055;-35.296;149.168;2023-04-07T04:23:25;93644.22;;;13.45;71.12
61814;BME280;57055;-35.296;149.168;2023-04-07T04:25:53;93626.39;;;13.89;70.98
61814;BME280;57055;-35.296;149.168;2023-04-07T04:28:22;93612.02;;;13.38;71.80
61814;BME280;57055;-35.296;149.168;2023-04-07T04:30:51;93613.76;;;13.37;72.70
61814;BME280;57055;-35.296;149.168;2023-04-07T04:33:19;93600.04;;;13.32;73.04
61814;BME280;57055;-35.296;149.168;2023-04-07T04:35:48;93590.42;;;13.39;72.15
61814;BME280;57055;-35.296;149.168;2023-04-07T04:38:18;93593.92;;;13.41;72.18
61814;BME280;57055;-35.296;149.168;2023-04-07T04:40:47;93597.84;;;13.28;72.57
61814;BME280;57055;-35.296;149.168;2023-04-07T04:43:15;93602.80;;;13.18;73.11
61814;BME280;57055;-35.296;149.168;2023-04-07T04:45:44;93596.75;;;13.11;73.11
61814;BME280;57055;-35.296;149.168;2023-04-07T04:48:13;93592.76;;;13.37;74.52
61814;BME280;57055;-35.296;149.168;2023-04-07T04:50:42;93604.29;;;13.44;73.51
61814;BME280;57055;-35.296;149.168;2023-04-07T04:53:11;93618.14;;;12.86;73.60
61814;BME280;57055;-35.296;149.168;2023-04-07T04:55:39;93608.37;;;12.86;74.81
61814;BME280;57055;-35.296;149.168;2023-04-07T04:58:08;93571.07;;;12.88;74.34
61814;BME280;57055;-35.296;149.168;2023-04-07T05:00:37;93568.72;;;13.31;74.49
61814;BME280;57055;-35.296;149.168;2023-04-07T05:03:06;93576.90;;;12.89;75.03
61814;BME280;57055;-35.296;149.168;2023-04-07T05:05:35;93561.08;;;12.95;75.58
61814;BME280;57055;-35.296;149.168;2023-04-07T05:08:04;93554.22;;;13.21;75.96
61814;BME280;57055;-35.296;149.168;2023-04-07T05:10:36;93544.55;;;12.91;75.69
61814;BME280;57055;-35.296;149.168;2023-04-07T05:13:05;93551.15;;;12.88;75.95
61814;BME280;57055;-35.296;149.168;2023-04-07T05:15:33;93551.43;;;12.90;76.50
61814;BME280;57055;-35.296;149.168;2023-04-07T05:18:02;93548.66;;;12.96;76.74
61814;BME280;57055;-35.296;149.168;2023-04-07T05:20:31;93520.81;;;13.47;76.67
61814;BME280;57055;-35.296;149.168;2023-04-07T05:22:59;93501.44;;;13.25;76.72
61814;BME280;57055;-35.296;149.168;2023-04-07T05:25:28;93506.10;;;12.97;76.75
61814;BME280;57055;-35.296;149.168;2023-04-07T05:27:57;93517.31;;;12.88;76.99
61814;BME280;57055;-35.296;149.168;2023-04-07T05:30:28;93520.38;;;13.15;77.22
61814;BME280;57055;-35.296;149.168;2023-04-07T05:32:56;93511.35;;;13.08;77.17
61814;BME280;57055;-35.296;149.168;2023-04-07T05:35:25;93495.80;;;12.82;77.22
61814;BME280;57055;-35.296;149.168;2023-04-07T05:37:54;93488.14;;;13.07;77.33
61814;BME280;57055;-35.296;149.168;2023-04-07T05:40:23;93477.78;;;13.12;77.69
61814;BME280;57055;-35.296;149.168;2023-04-07T05:42:52;93463.02;;;12.90;77.57
61814;BME280;57055;-35.296;149.168;2023-04-07T05:45:20;93453.54;;;13.14;76.89
61814;BME280;57055;-35.296;149.168;2023-04-07T05:47:49;93450.48;;;12.82;77.53
61814;BME280;57055;-35.296;149.168;2023-04-07T05:50:18;93446.70;;;13.18;77.98
61814;BME280;57055;-35.296;149.168;2023-04-07T05:52:47;93459.00;;;12.93;77.44
61814;BME280;57055;-35.296;149.168;2023-04-07T05:55:16;93472.75;;;12.82;76.98
61814;BME280;57055;-35.296;149.168;2023-04-07T05:57:45;93469.49;;;12.77;77.10
61814;BME280;57055;-35.296;149.168;2023-04-07T06:00:15;93462.31;;;12.82;77.53
61814;BME280;57055;-35.296;149.168;2023-04-07T06:02:45;93462.68;;;13.09;77.45
61814;BME280;57055;-35.296;149.168;2023-04-07T06:05:14;93475.32;;;12.81;77.99
61814;BME280;57055;-35.296;149.168;2023-04-07T06:07:42;93486.16;;;13.09;77.76
61814;BME280;57055;-35.296;149.168;2023-04-07T06:10:11;93503.35;;;12.84;77.57
61814;BME280;57055;-35.296;149.168;2023-04-07T06:12:42;93520.36;;;13.31;77.76
61814;BME280;57055;-35.296;149.168;2023-04-07T06:15:11;93524.01;;;13.35;77.34
61814;BME280;57055;-35.296;149.168;2023-04-07T06:17:40;93520.82;;;12.87;76.46
61814;BME280;57055;-35.296;149.168;2023-04-07T06:20:09;93518.56;;;12.89;76.39
61814;BME280;57055;-35.296;149.168;2023-04-07T06:22:39;93508.70;;;13.43;76.69
61814;BME280;57055;-35.296;149.168;2023-04-07T06:25:09;93504.49;;;12.90;75.93
61814;BME280;57055;-35.296;149.168;2023-04-07T06:27:37;93504.85;;;13.07;75.99
61814;BME280;57055;-35.296;149.168;2023-04-07T06:30:07;93513.70;;;12.84;76.74
61814;BME280;57055;-35.296;149.168;2023-04-07T06:32:36;93516.56;;;12.82;77.30
61814;BME280;57055;-35.296;149.168;2023-04-07T06:35:05;93508.44;;;13.01;77.01
61814;BME280;57055;-35.296;149.168;2023-04-07T06:37:34;93509.36;;;12.74;76.98
61814;BME280;57055;-35.296;149.168;2023-04-07T06:40:04;93511.10;;;12.77;77.20
61814;BME280;57055;-35.296;149.168;2023-04-07T06:42:33;93507.10;;;12.75;77.37
61814;BME280;57055;-35.296;149.168;2023-04-07T06:45:01;93502.43;;;12.99;77.33
61814;BME280;57055;-35.296;149.168;2023-04-07T06:47:30;93507.70;;;12.69;77.47
61814;BME280;57055;-35.296;149.168;2023-04-07T06:49:58;93512.58;;;12.69;78.07
61814;BME280;57055;-35.296;149.168;2023-04-07T06:52:27;93511.48;;;12.98;78.38
61814;BME280;57055;-35.296;149.168;2023-04-07T06:54:57;93519.04;;;12.70;77.88
61814;BME280;57055;-35.296;149.168;2023-04-07T06:57:25;93533.31;;;12.65;78.16
61814;BME280;57055;-35.296;149.168;2023-04-07T06:59:54;93542.29;;;12.97;78.13
61814;BME280;57055;-35.296;149.168;2023-04-07T07:02:22;93546.84;;;12.66;78.35
61814;BME280;57055;-35.296;149.168;2023-04-07T07:04:52;93555.36;;;12.71;78.66
61814;BME280;57055;-35.296;149.168;2023-04-07T07:07:21;93559.36;;;12.79;79.02
61814;BME280;57055;-35.296;149.168;2023-04-07T07:09:49;93568.11;;;12.71;79.07
61814;BME280;57055;-35.296;149.168;2023-04-07T07:12:19;93541.12;;;12.64;78.93
61814;BME280;57055;-35.296;149.168;2023-04-07T07:14:47;93477.15;;;12.84;78.69
61814;BME280;57055;-35.296;149.168;2023-04-07T07:17:16;93456.71;;;12.45;78.28
61814;BME280;57055;-35.296;149.168;2023-04-07T07:19:44;93427.86;;;12.86;78.76
61814;BME280;57055;-35.296;149.168;2023-04-07T07:22:13;93392.93;;;12.89;78.75
61814;BME280;57055;-35.296;149.168;2023-04-07T07:24:42;93410.83;;;12.88;78.40
61814;BME280;57055;-35.296;149.168;2023-04-07T07:27:10;93428.80;;;12.68;78.06
61814;BME280;57055;-35.296;149.168;2023-04-07T07:29:39;93448.71;;;12.73;78.33
61814;BME280;57055;-35.296;149.168;2023-04-07T07:32:08;93469.75;;;12.58;78.39
61814;BME280;57055;-35.296;149.168;2023-04-07T07:34:36;93489.20;;;12.61;78.55
61814;BME280;57055;-35.296;149.168;2023-04-07T07:37:05;93509.21;;;12.87;78.05
61814;BME280;57055;-35.296;149.168;2023-04-07T07:39:34;93527.84;;;12.87;78.25
61814;BME280;57055;-35.296;149.168;2023-04-07T07:42:03;93570.86;;;12.63;78.29
61814;BME280;57055;-35.296;149.168;2023-04-07T07:44:32;93643.75;;;12.62;78.43
61814;BME280;57055;-35.296;149.168;2023-04-07T07:47:00;93701.09;;;12.72;75.12
61814;BME280;57055;-35.296;149.168;2023-04-07T07:49:29;93692.07;;;12.82;73.08
61814;BME280;57055;-35.296;149.168;2023-04-07T07:51:58;93676.71;;;12.55;72.24
61814;BME280;57055;-35.296;149.168;2023-04-07T07:54:26;93666.71;;;12.45;71.71
61814;BME280;57055;-35.296;149.168;2023-04-07T07:56:55;93678.22;;;12.34;71.60
61814;BME280;57055;-35.296;149.168;2023-04-07T07:59:24;93687.47;;;12.15;71.78
61814;BME280;57055;-35.296;149.168;2023-04-07T08:01:53;93696.27;;;12.08;71.59
61814;BME280;57055;-35.296;149.168;2023-04-07T08:04:22;93696.98;;;12.07;71.05
61814;BME280;57055;-35.296;149.168;2023-04-07T08:06:51;93692.40;;;11.99;71.02
61814;BME280;57055;-35.296;149.168;2023-04-07T08:09:21;93678.26;;;11.93;71.45
61814;BME280;57055;-35.296;149.168;2023-04-07T08:11:49;93681.36;;;11.88;71.75
61814;BME280;57055;-35.296;149.168;2023-04-07T08:14:18;93700.63;;;12.24;71.89
61814;BME280;57055;-35.296;149.168;2023-04-07T08:16:47;93726.19;;;11.91;72.48
61814;BME280;57055;-35.296;149.168;2023-04-07T08:19:16;93727.08;;;11.60;72.79
61814;BME280;57055;-35.296;149.168;2023-04-07T08:21:45;93739.67;;;11.64;72.78
61814;BME280;57055;-35.296;149.168;2023-04-07T08:24:13;93726.80;;;11.83;72.52
61814;BME280;57055;-35.296;149.168;2023-04-07T08:26:42;93734.63;;;11.80;73.06
61814;BME280;57055;-35.296;149.168;2023-04-07T08:29:11;93732.56;;;11.52;73.14
61814;BME280;57055;-35.296;149.168;2023-04-07T08:31:39;93700.67;;;11.67;72.60
61814;BME280;57055;-35.296;149.168;2023-04-07T08:34:08;93692.86;;;11.59;73.38
61814;BME280;57055;-35.296;149.168;2023-04-07T08:36:37;93676.89;;;11.85;73.37
61814;BME280;57055;-35.296;149.168;2023-04-07T08:39:06;93663.43;;;11.47;72.50
61814;BME280;57055;-35.296;149.168;2023-04-07T08:41:38;93634.08;;;11.45;73.27
61814;BME280;57055;-35.296;149.168;2023-04-07T08:44:08;93615.00;;;11.28;73.29
61814;BME280;57055;-35.296;149.168;2023-04-07T08:46:39;93645.47;;;11.43;73.67
61814;BME280;57055;-35.296;149.168;2023-04-07T08:49:10;93665.79;;;11.47;73.89
61814;BME280;57055;-35.296;149.168;2023-04-07T08:51:45;93654.62;;;11.76;73.76
61814;BME280;57055;-35.296;149.168;2023-04-07T08:54:15;93653.63;;;11.55;73.25
61814;BME280;57055;-35.296;149.168;2023-04-07T08:56:45;93660.51;;;11.85;73.46
61814;BME280;57055;-35.296;149.168;2023-04-07T08:59:14;93672.26;;;11.54;73.33
61814;BME280;57055;-35.296;149.168;2023-04-07T09:01:45;93681.00;;;11.49;73.28
61814;BME280;57055;-35.296;149.168;2023-04-07T09:04:14;93684.97;;;11.30;72.91
61814;BME280;57055;-35.296;149.168;2023-04-07T09:06:44;93678.12;;;11.25;72.12
61814;BME280;57055;-35.296;149.168;2023-04-07T09:09:13;93669.16;;;11.25;72.52
61814;BME280;57055;-35.296;149.168;2023-04-07T09:11:42;93669.95;;;11.25;72.85
61814;BME280;57055;-35.296;149.168;2023-04-07T09:14:11;93660.29;;;11.54;72.64
61814;BME280;57055;-35.296;149.168;2023-04-07T09:16:40;93663.63;;;11.32;73.70
61814;BME280;57055;-35.296;149.168;2023-04-07T09:19:09;93668.24;;;11.72;74.12
61814;BME280;57055;-35.296;149.168;2023-04-07T09:21:48;93665.08;;;11.48;74.26
61814;BME280;57055;-35.296;149.168;2023-04-07T09:24:27;93666.82;;;11.76;74.19
61814;BME280;57055;-35.296;149.168;2023-04-07T09:27:10;93667.08;;;11.36;73.59
61814;BME280;57055;-35.296;149.168;2023-04-07T09:29:40;93666.78;;;11.59;73.65
61814;BME280;57055;-35.296;149.168;2023-04-07T09:32:10;93670.70;;;11.60;73.61
61814;BME280;57055;-35.296;149.168;2023-04-07T09:34:41;93664.83;;;11.24;73.03
61814;BME280;57055;-35.296;149.168;2023-04-07T09:37:21;93660.40;;;11.17;73.30
61814;BME280;57055;-35.296;149.168;2023-04-07T09:39:51;93656.31;;;11.36;73.34
61814;BME280;57055;-35.296;149.168;2023-04-07T09:42:21;93651.28;;;11.28;73.36
61814;BME280;57055;-35.296;149.168;2023-04-07T09:44:50;93651.38;;;11.25;72.90
61814;BME280;57055;-35.296;149.168;2023-04-07T09:47:26;93642.70;;;10.99;73.19
61814;BME280;57055;-35.296;149.168;2023-04-07T09:49:55;93632.62;;;10.98;72.99
61814;BME280;57055;-35.296;149.168;2023-04-07T09:52:47;93634.06;;;10.96;72.92
61814;BME280;57055;-35.296;149.168;2023-04-07T09:55:18;93624.65;;;11.21;72.47
61814;BME280;57055;-35.296;149.168;2023-04-07T09:57:49;93621.53;;;11.17;72.28
61814;BME280;57055;-35.296;149.168;2023-04-07T10:00:18;93615.50;;;10.88;72.26
61814;BME280;57055;-35.296;149.168;2023-04-07T10:02:48;93615.42;;;10.97;71.96
61814;BME280;57055;-35.296;149.168;2023-04-07T10:05:17;93605.53;;;10.66;71.86
61814;BME280;57055;-35.296;149.168;2023-04-07T10:07:47;93601.11;;;10.88;71.62
61814;BME280;57055;-35.296;149.168;2023-04-07T10:10:16;93596.85;;;10.86;70.93
61814;BME280;57055;-35.296;149.168;2023-04-07T10:12:46;93598.00;;;10.97;70.65
61814;BME280;57055;-35.296;149.168;2023-04-07T10:15:17;93592.01;;;10.56;71.00
61814;BME280;57055;-35.296;149.168;2023-04-07T10:17:47;93585.93;;;10.92;71.05
61814;BME280;57055;-35.296;149.168;2023-04-07T10:20:18;93583.80;;;10.53;70.84
61814;BME280;57055;-35.296;149.168;2023-04-07T10:22:48;93580.95;;;10.43;71.17
61814;BME280;57055;-35.296;149.168;2023-04-07T10:25:20;93579.64;;;10.20;71.02
61814;BME280;57055;-35.296;149.168;2023-04-07T10:27:51;93582.55;;;10.32;70.73
61814;BME280;57055;-35.296;149.168;2023-04-07T10:30:25;93583.96;;;10.10;71.54
61814;BME280;57055;-35.296;149.168;2023-04-07T10:32:55;93579.83;;;10.09;70.95
61814;BME280;57055;-35.296;149.168;2023-04-07T10:35:24;93582.47;;;10.52;70.23
61814;BME280;57055;-35.296;149.168;2023-04-07T10:38:25;93581.02;;;10.20;70.54
61814;BME280;57055;-35.296;149.168;2023-04-07T10:40:55;93581.14;;;10.48;70.79
61814;BME280;57055;-35.296;149.168;2023-04-07T10:43:37;93582.54;;;10.26;70.97
61814;BME280;57055;-35.296;149.168;2023-04-07T10:46:07;93581.19;;;10.27;71.01
61814;BME280;57055;-35.296;149.168;2023-04-07T10:48:36;93581.26;;;10.06;70.59
61814;BME280;57055;-35.296;149.168;2023-04-07T10:51:14;93582.87;;;10.09;70.78
61814;BME280;57055;-35.296;149.168;2023-04-07T10:54:36;93583.62;;;10.33;70.94
61814;BME280;57055;-35.296;149.168;2023-04-07T10:57:09;93590.47;;;10.40;70.80
61814;BME280;57055;-35.296;149.168;2023-04-07T10:59:40;93589.83;;;10.14;70.98
61814;BME280;57055;-35.296;149.168;2023-04-07T11:02:41;93591.24;;;10.44;70.73
61814;BME280;57055;-35.296;149.168;2023-04-07T11:05:20;93588.08;;;10.74;70.42
61814;BME280;57055;-35.296;149.168;2023-04-07T11:07:52;93585.71;;;10.16;70.08
61814;BME280;57055;-35.296;149.168;2023-04-07T11:10:22;93584.68;;;10.45;69.74
61814;BME280;57055;-35.296;149.168;2023-04-07T11:13:02;93581.82;;;10.45;69.88
61814;BME280;57055;-35.296;149.168;2023-04-07T11:15:32;93584.23;;;10.22;69.98
61814;BME280;57055;-35.296;149.168;2023-04-07T11:18:12;93587.52;;;10.14;70.48
61814;BME280;57055;-35.296;149.168;2023-04-07T11:20:43;93588.89;;;10.60;70.05
61814;BME280;57055;-35.296;149.168;2023-04-07T11:23:13;93590.14;;;10.57;70.10
61814;BME280;57055;-35.296;149.168;2023-04-07T11:25:44;93594.60;;;10.27;70.46
61814;BME280;57055;-35.296;149.168;2023-04-07T11:28:14;93595.95;;;10.26;70.38
61814;BME280;57055;-35.296;149.168;2023-04-07T11:30:49;93596.29;;;10.24;70.19
61814;BME280;57055;-35.296;149.168;2023-04-07T11:33:20;93595.55;;;10.46;70.17
61814;BME280;57055;-35.296;149.168;2023-04-07T11:35:51;93595.85;;;10.06;70.28
61814;BME280;57055;-35.296;149.168;2023-04-07T11:38:22;93601.86;;;10.04;70.38
61814;BME280;57055;-35.296;149.168;2023-04-07T11:40:52;93602.35;;;10.00;70.32
61814;BME280;57055;-35.296;149.168;2023-04-07T11:43:22;93605.68;;;10.48;70.00
61814;BME280;57055;-35.296;149.168;2023-04-07T11:46:09;93601.77;;;10.50;70.13
61814;BME280;57055;-35.296;149.168;2023-04-07T11:48:39;93601.70;;;10.44;70.02
61814;BME280;57055;-35.296;149.168;2023-04-07T11:51:16;93607.63;;;10.19;69.99
61814;BME280;57055;-35.296;149.168;2023-04-07T11:53:46;93612.64;;;10.20;70.23
61814;BME280;57055;-35.296;149.168;2023-04-07T11:56:16;93614.75;;;10.16;70.29
61814;BME280;57055;-35.296;149.168;2023-04-07T11:58:49;93613.54;;;9.88;70.29
61814;BME280;57055;-35.296;149.168;2023-04-07T12:01:18;93616.32;;;10.32;70.30
61814;BME280;57055;-35.296;149.168;2023-04-07T12:04:04;93619.13;;;10.34;70.28
61814;BME280;57055;-35.296;149.168;2023-04-07T12:06:34;93619.00;;;10.34;70.40
61814;BME280;57055;-35.296;149.168;2023-04-07T12:09:04;93619.83;;;9.89;70.23
61814;BME280;57055;-35.296;149.168;2023-04-07T12:11:34;93623.67;;;10.07;70.19
61814;BME280;57055;-35.296;149.168;2023-04-07T12:14:04;93620.88;;;10.34;70.31
61814;BME280;57055;-35.296;149.168;2023-04-07T12:16:37;93627.29;;;10.07;70.40
61814;BME280;57055;-35.296;149.168;2023-04-07T12:19:06;93624.10;;;10.08;70.21
61814;BME280;57055;-35.296;149.168;2023-04-07T12:21:35;93623.52;;;10.33;70.30
61814;BME280;57055;-35.296;149.168;2023-04-07T12:24:04;93629.93;;;9.81;70.18
61814;BME280;57055;-35.296;149.168;2023-04-07T12:26:32;93632.74;;;10.29;70.35
61814;BME280;57055;-35.296;149.168;2023-04-07T12:29:01;93635.70;;;10.26;70.40
61814;BME280;57055;-35.296;149.168;2023-04-07T12:31:30;93636.45;;;9.90;69.99
61814;BME280;57055;-35.296;149.168;2023-04-07T12:33:59;93631.10;;;9.85;69.84
61814;BME280;57055;-35.296;149.168;2023-04-07T12:36:28;93636.72;;;10.09;70.18
61814;BME280;57055;-35.296;149.168;2023-04-07T12:38:57;93638.93;;;10.09;70.29
61814;BME280;57055;-35.296;149.168;2023-04-07T12:41:27;93634.09;;;9.98;70.29
61814;BME280;57055;-35.296;149.168;2023-04-07T12:43:56;93638.03;;;9.71;69.99
61814;BME280;57055;-35.296;149.168;2023-04-07T12:46:25;93633.74;;;9.93;69.91